createdAt,value
2022-09-06T00:03:40.315Z,101488.47
2022-09-06T00:08:45.346Z,101516.50
2022-09-06T00:13:50.623Z,101552.59
2022-09-06T00:18:55.724Z,101582.50
2022-09-06T00:23:59.427Z,101564.94
2022-09-06T00:29:04.520Z,101561.34
2022-09-06T00:34:08.407Z,101552.69
2022-09-06T00:39:12.176Z,101548.41
2022-09-06T00:44:17.505Z,101520.47
2022-09-06T00:49:25.796Z,101514.41
2022-09-06T00:54:29.394Z,101499.62
2022-09-06T00:59:37.258Z,101473.31
2022-09-06T01:04:44.507Z,101423.37
2022-09-06T01:10:03.975Z,101417.97
2022-09-06T01:15:23.252Z,101383.75
2022-09-06T01:20:50.184Z,101373.22
2022-09-06T01:26:04.811Z,101353.13
2022-09-06T01:31:27.831Z,101360.00
2022-09-06T01:36:49.635Z,101374.06
2022-09-06T01:42:07.129Z,101380.88
2022-09-06T01:47:26.600Z,101395.66
2022-09-06T01:52:35.510Z,101413.22
2022-09-06T01:58:01.338Z,101424.41
2022-09-06T02:03:13.424Z,101419.25
2022-09-06T02:08:23.689Z,101376.44
2022-09-06T02:13:31.320Z,101385.06
2022-09-06T02:18:41.611Z,101379.59
2022-09-06T02:23:47.928Z,101388.12
2022-09-06T02:28:51.761Z,101382.59
2022-09-06T02:33:57.676Z,101380.94
2022-09-06T02:39:01.915Z,101379.16
2022-09-06T02:44:05.660Z,101371.25
2022-09-06T02:49:10.720Z,101361.50
2022-09-06T02:54:14.679Z,101364.06
2022-09-06T02:59:18.342Z,101364.03
2022-09-06T03:04:23.391Z,101365.78
2022-09-06T03:09:27.165Z,101361.31
2022-09-06T03:14:30.896Z,101360.44
2022-09-06T03:19:35.889Z,101367.28
2022-09-06T03:24:39.615Z,101368.19
2022-09-06T03:29:43.278Z,101369.03
2022-09-06T03:34:48.342Z,101368.06
2022-09-06T03:39:52.225Z,101370.56
2022-09-06T03:44:55.983Z,101373.09
2022-09-06T03:50:01.006Z,101379.03
2022-09-06T03:55:05.427Z,101394.69
2022-09-06T04:00:10.449Z,101407.66
2022-09-06T04:05:16.570Z,101410.94
2022-09-06T04:10:20.465Z,101403.16
2022-09-06T04:15:24.214Z,101407.50
2022-09-06T04:20:29.326Z,101417.16
2022-09-06T04:25:33.144Z,101423.87
2022-09-06T04:30:36.864Z,101417.81
2022-09-06T04:35:41.910Z,101415.03
2022-09-06T04:40:45.626Z,101407.09
2022-09-06T04:45:49.598Z,101408.75
2022-09-06T04:50:54.735Z,101408.53
2022-09-06T04:55:59.368Z,101416.31
2022-09-06T05:01:03.132Z,101422.38
2022-09-06T05:06:11.018Z,101405.69
2022-09-06T05:11:14.866Z,101402.19
2022-09-06T05:16:19.022Z,101402.87
2022-09-06T05:21:24.106Z,101408.62
2022-09-06T05:26:27.839Z,101407.47
2022-09-06T05:31:33.659Z,101399.59
2022-09-06T05:36:38.835Z,101401.47
2022-09-06T05:41:42.580Z,101401.53
2022-09-06T05:46:46.996Z,101405.88
2022-09-06T05:51:53.165Z,101405.97
2022-09-06T05:56:57.024Z,101410.44
2022-09-06T06:02:03.313Z,101399.34
2022-09-06T06:07:11.779Z,101404.88
2022-09-06T06:12:15.493Z,101398.19
2022-09-06T06:17:19.202Z,101395.81
2022-09-06T06:22:24.275Z,101397.81
2022-09-06T06:27:28.030Z,101401.56
2022-09-06T06:32:31.738Z,101399.09
2022-09-06T06:37:37.030Z,101398.38
2022-09-06T06:42:40.912Z,101391.59
2022-09-06T06:47:44.615Z,101384.78
2022-09-06T06:52:49.671Z,101381.44
2022-09-06T06:57:53.745Z,101385.03
2022-09-06T07:02:57.495Z,101387.78
2022-09-06T07:08:02.647Z,101374.06
2022-09-06T07:13:06.464Z,101382.06
2022-09-06T07:18:10.206Z,101374.28
2022-09-06T07:28:39.042Z,101385.22
2022-09-06T07:33:42.808Z,101385.47
2022-09-06T07:38:51.431Z,101377.00
2022-09-06T07:43:55.709Z,101370.28
2022-09-06T07:48:59.605Z,101373.22
2022-09-06T07:54:29.238Z,101366.53
2022-09-06T07:59:28.673Z,101369.44
2022-09-06T08:04:32.661Z,101353.00
2022-09-06T08:09:38.082Z,101352.31
2022-09-06T08:14:41.939Z,101351.59
2022-09-06T08:19:45.680Z,101358.84
2022-09-06T08:24:50.723Z,101366.03
2022-09-06T08:29:54.438Z,101375.87
2022-09-06T08:34:58.403Z,101381.31
2022-09-06T08:40:03.875Z,101378.06
2022-09-06T08:45:12.521Z,101369.41
2022-09-06T08:50:16.547Z,101378.25
2022-09-06T08:55:31.764Z,101372.22
2022-09-06T09:00:37.077Z,101361.78
2022-09-06T09:05:42.359Z,101371.53
2022-09-06T09:10:50.130Z,101368.94
2022-09-06T09:15:54.380Z,101364.59
2022-09-06T09:20:59.694Z,101368.13
2022-09-06T09:26:08.175Z,101363.78
2022-09-06T09:31:14.256Z,101367.28
2022-09-06T09:36:22.615Z,101357.59
2022-09-06T09:41:30.742Z,101361.09
2022-09-06T09:46:36.235Z,101358.47
2022-09-06T09:51:41.713Z,101354.88
2022-09-06T09:56:50.383Z,101350.47
2022-09-06T10:01:57.046Z,101367.12
2022-09-06T10:07:15.460Z,101374.94
2022-09-06T10:12:30.112Z,101366.03
2022-09-06T10:17:36.124Z,101369.37
2022-09-06T10:22:52.607Z,101362.87
2022-09-06T10:28:24.823Z,101374.69
2022-09-06T10:33:39.351Z,101378.31
2022-09-06T10:38:53.612Z,101372.31
2022-09-06T10:44:08.763Z,101366.47
2022-09-06T10:49:16.973Z,101366.06
2022-09-06T10:54:23.846Z,101361.28
2022-09-06T11:10:10.493Z,101385.94
2022-09-06T11:15:17.672Z,101384.31
2022-09-06T11:20:31.265Z,101381.06
2022-09-06T11:26:11.761Z,101376.34
2022-09-06T11:36:49.687Z,101383.53
2022-09-06T11:41:53.388Z,101374.56
2022-09-06T11:47:02.364Z,101374.81
2022-09-06T11:52:52.129Z,101370.47
2022-09-06T11:57:59.223Z,101363.09
2022-09-06T12:08:37.741Z,101354.69
2022-09-06T12:14:03.090Z,101369.72
2022-09-06T12:19:08.362Z,101369.75
2022-09-06T12:24:45.591Z,101356.81
2022-09-06T12:29:54.606Z,101353.38
2022-09-06T12:40:26.259Z,101336.19
2022-09-06T12:45:30.130Z,101338.78
2022-09-06T12:50:35.351Z,101323.81
2022-09-06T12:55:39.663Z,101332.09
2022-09-06T13:00:46.581Z,101327.53
2022-09-06T13:05:53.783Z,101319.94
2022-09-06T13:10:58.203Z,101317.41
2022-09-06T13:16:02.003Z,101307.66
2022-09-06T13:21:12.046Z,101302.75
2022-09-06T13:26:16.101Z,101291.28
2022-09-06T13:31:22.635Z,101276.72
2022-09-06T13:36:30.692Z,101281.91
2022-09-06T13:41:44.458Z,101282.28
2022-09-06T13:46:53.360Z,101285.78
2022-09-06T13:52:01.999Z,101279.56
2022-09-06T13:57:06.007Z,101272.34
2022-09-06T14:02:12.051Z,101275.91
2022-09-06T14:07:17.291Z,101292.06
2022-09-06T14:12:21.216Z,101286.41
2022-09-06T14:17:24.904Z,101283.75
2022-09-06T14:22:30.016Z,101280.53
2022-09-06T14:27:35.261Z,101276.78
2022-09-06T14:32:38.994Z,101268.72
2022-09-06T14:37:44.007Z,101275.38
2022-09-06T14:42:50.547Z,101267.56
2022-09-06T14:47:54.438Z,101238.78
2022-09-06T14:52:59.718Z,101226.37
2022-09-06T14:58:03.558Z,101217.28
2022-09-06T15:03:07.342Z,101233.44
2022-09-06T15:08:12.447Z,101252.34
2022-09-06T15:13:16.983Z,101247.56
2022-09-06T15:18:21.450Z,101231.44
2022-09-06T15:23:28.165Z,101214.84
2022-09-06T15:28:31.860Z,101233.41
2022-09-06T15:33:37.300Z,101228.09
2022-09-06T15:38:44.399Z,101220.31
2022-09-06T15:43:50.635Z,101211.81
2022-09-06T15:48:54.380Z,101198.12
2022-09-06T15:53:59.938Z,101209.41
2022-09-06T15:59:03.864Z,101218.09
2022-09-06T16:04:08.639Z,101219.50
2022-09-06T16:09:15.467Z,101218.44
2022-09-06T16:14:19.483Z,101209.47
2022-09-06T16:19:23.243Z,101203.63
2022-09-06T16:24:28.389Z,101206.37
2022-09-06T16:29:32.086Z,101201.47
2022-09-06T16:34:37.846Z,101191.19
2022-09-06T16:39:43.194Z,101192.34
2022-09-06T16:44:47.131Z,101194.22
2022-09-06T16:49:50.860Z,101187.31
2022-09-06T16:54:55.963Z,101175.06
2022-09-06T16:59:59.732Z,101178.72
2022-09-06T17:05:03.973Z,101179.81
2022-09-06T17:10:09.845Z,101172.87
2022-09-06T17:15:13.900Z,101180.19
2022-09-06T17:20:20.555Z,101179.41
2022-09-06T17:25:25.773Z,101170.75
2022-09-06T17:30:29.889Z,101167.38
2022-09-06T17:35:34.241Z,101163.88
2022-09-06T17:40:39.736Z,101160.66
2022-09-06T17:45:43.898Z,101160.16
2022-09-06T17:50:47.687Z,101139.13
2022-09-06T17:55:52.788Z,101126.94
2022-09-06T18:00:56.709Z,101121.91
2022-09-06T18:06:04.927Z,101127.28
2022-09-06T18:11:11.612Z,101131.78
2022-09-06T18:16:15.849Z,101132.84
2022-09-06T18:21:19.707Z,101138.31
2022-09-06T18:26:25.228Z,101127.78
2022-09-06T18:31:29.184Z,101121.75
2022-09-06T18:36:32.969Z,101128.06
2022-09-06T18:41:55.690Z,101123.72
2022-09-06T18:47:01.194Z,101114.09
2022-09-06T18:52:06.713Z,101114.94
2022-09-06T18:57:12.031Z,101113.22
2022-09-06T19:02:16.027Z,101108.00
2022-09-06T19:07:19.907Z,101098.34
2022-09-06T19:12:25.060Z,101086.03
2022-09-06T19:17:28.792Z,101091.41
2022-09-06T19:22:33.225Z,101087.91
2022-09-06T19:27:38.818Z,101072.09
2022-09-06T19:32:42.567Z,101072.19
2022-09-06T19:37:46.433Z,101059.03
2022-09-06T19:42:52.173Z,101055.47
2022-09-06T19:47:55.998Z,101059.88
2022-09-06T19:53:01.467Z,101062.53
2022-09-06T19:58:09.452Z,101042.31
2022-09-06T20:03:13.228Z,101042.38
2022-09-06T20:08:17.028Z,101021.31
2022-09-06T20:13:22.225Z,101018.69
2022-09-06T20:18:26.355Z,101004.69
2022-09-06T20:23:31.976Z,100990.63
2022-09-06T20:28:37.911Z,100978.34
2022-09-06T20:33:44.679Z,100985.38
2022-09-06T20:38:51.480Z,100953.75
2022-09-06T20:43:58.365Z,100951.13
2022-09-06T20:49:04.720Z,100951.13
2022-09-06T20:54:08.622Z,100944.12
2022-09-06T20:59:14.869Z,100944.12
2022-09-06T21:04:18.864Z,100932.69
2022-09-06T21:09:22.571Z,100930.94
2022-09-06T21:14:27.622Z,100922.16
2022-09-06T21:19:31.463Z,100913.44
2022-09-06T21:24:35.230Z,100903.81
2022-09-06T21:29:40.337Z,100910.84
2022-09-06T21:34:44.066Z,100952.16
2022-09-06T21:39:47.922Z,101048.03
2022-09-06T21:44:53.454Z,101040.13
2022-09-06T21:49:57.266Z,101026.13
2022-09-06T21:55:00.908Z,101012.19
2022-09-06T22:00:07.606Z,101057.84
2022-09-06T22:05:11.095Z,101102.69
2022-09-06T22:10:14.897Z,101108.84
2022-09-06T22:15:21.604Z,101093.88
2022-09-06T22:20:25.313Z,101183.34
2022-09-06T22:25:28.984Z,101195.41
2022-09-06T22:30:34.060Z,101190.03
2022-09-06T22:35:37.793Z,101186.37
2022-09-06T22:40:41.610Z,101184.56
2022-09-06T22:45:51.331Z,101193.28
2022-09-06T22:50:55.750Z,101176.59
2022-09-06T22:56:00.122Z,101167.72
2022-09-06T23:01:11.188Z,101192.22
2022-09-06T23:06:15.042Z,101207.00
2022-09-06T23:11:20.208Z,101219.94
2022-09-06T23:16:28.281Z,101204.00
2022-09-06T23:21:32.356Z,101224.75
2022-09-06T23:26:36.636Z,101226.25
2022-09-06T23:31:42.482Z,101234.94
2022-09-06T23:36:46.329Z,101222.53
2022-09-06T23:41:50.066Z,101198.72
2022-09-06T23:46:55.216Z,101177.56
2022-09-06T23:51:59.033Z,101178.34
2022-09-06T23:57:02.765Z,101172.19
